sensor_id;sensor_type;location;lat;lon;timestamp;P1;durP1;ratioP1;P2;durP2;ratioP2
8893;SDS011;4483;48.622;9.230;2022-12-10T00:00:04;27.77;;;17.50;;
8893;SDS011;4483;48.622;9.230;2022-12-10T00:02:33;31.40;;;17.33;;
8893;SDS011;4483;48.622;9.230;2022-12-10T00:05:00;27.77;;;16.67;;
8893;SDS011;4483;48.622;9.230;2022-12-10T00:07:27;25.97;;;15.60;;
8893;SDS011;4483;48.622;9.230;2022-12-10T00:09:53;28.77;;;16.60;;
8893;SDS011;4483;48.622;9.230;2022-12-10T00:12:20;25.73;;;16.53;;
8893;SDS011;4483;48.622;9.230;2022-12-10T00:14:46;29.83;;;15.97;;
8893;SDS011;4483;48.622;9.230;2022-12-10T00:17:13;30.23;;;17.43;;
8893;SDS011;4483;48.622;9.230;2022-12-10T00:19:41;27.03;;;17.13;;
8893;SDS011;4483;48.622;9.230;2022-12-10T00:22:08;29.57;;;16.03;;
8893;SDS011;4483;48.622;9.230;2022-12-10T00:24:34;28.63;;;17.00;;
8893;SDS011;4483;48.622;9.230;2022-12-10T00:27:01;32.60;;;17.23;;
8893;SDS011;4483;48.622;9.230;2022-12-10T00:29:28;33.40;;;18.53;;
8893;SDS011;4483;48.622;9.230;2022-12-10T00:31:54;28.23;;;18.00;;
8893;SDS011;4483;48.622;9.230;2022-12-10T00:34:21;32.37;;;18.27;;
8893;SDS011;4483;48.622;9.230;2022-12-10T00:36:49;32.23;;;16.67;;
8893;SDS011;4483;48.622;9.230;2022-12-10T00:39:17;33.33;;;18.10;;
8893;SDS011;4483;48.622;9.230;2022-12-10T00:41:45;38.23;;;18.53;;
8893;SDS011;4483;48.622;9.230;2022-12-10T00:44:13;32.10;;;19.03;;
8893;SDS011;4483;48.622;9.230;2022-12-10T00:46:40;34.63;;;19.37;;
8893;SDS011;4483;48.622;9.230;2022-12-10T00:49:07;40.47;;;18.93;;
8893;SDS011;4483;48.622;9.230;2022-12-10T00:51:33;32.90;;;18.17;;
8893;SDS011;4483;48.622;9.230;2022-12-10T00:54:01;28.33;;;17.37;;
8893;SDS011;4483;48.622;9.230;2022-12-10T00:56:30;34.73;;;18.40;;
8893;SDS011;4483;48.622;9.230;2022-12-10T00:58:58;31.40;;;18.30;;
8893;SDS011;4483;48.622;9.230;2022-12-10T01:01:26;30.23;;;17.30;;
8893;SDS011;4483;48.622;9.230;2022-12-10T01:03:57;34.97;;;18.13;;
8893;SDS011;4483;48.622;9.230;2022-12-10T01:06:25;29.50;;;17.77;;
8893;SDS011;4483;48.622;9.230;2022-12-10T01:08:54;30.57;;;18.07;;
8893;SDS011;4483;48.622;9.230;2022-12-10T01:11:24;35.93;;;17.77;;
8893;SDS011;4483;48.622;9.230;2022-12-10T01:13:52;37.97;;;17.67;;
8893;SDS011;4483;48.622;9.230;2022-12-10T01:16:22;32.97;;;18.20;;
8893;SDS011;4483;48.622;9.230;2022-12-10T01:18:50;37.17;;;18.70;;
8893;SDS011;4483;48.622;9.230;2022-12-10T01:21:18;28.40;;;17.47;;
8893;SDS011;4483;48.622;9.230;2022-12-10T01:23:46;32.20;;;17.60;;
8893;SDS011;4483;48.622;9.230;2022-12-10T01:26:15;26.77;;;17.33;;
8893;SDS011;4483;48.622;9.230;2022-12-10T01:28:44;33.43;;;17.97;;
8893;SDS011;4483;48.622;9.230;2022-12-10T01:31:12;31.00;;;17.83;;
8893;SDS011;4483;48.622;9.230;2022-12-10T01:33:40;33.57;;;17.43;;
8893;SDS011;4483;48.622;9.230;2022-12-10T01:36:08;34.70;;;18.03;;
8893;SDS011;4483;48.622;9.230;2022-12-10T01:38:37;28.47;;;17.17;;
8893;SDS011;4483;48.622;9.230;2022-12-10T01:41:05;24.53;;;16.70;;
8893;SDS011;4483;48.622;9.230;2022-12-10T01:46:27;27.00;;;17.10;;
8893;SDS011;4483;48.622;9.230;2022-12-10T01:48:54;31.10;;;17.27;;
8893;SDS011;4483;48.622;9.230;2022-12-10T01:51:22;26.63;;;16.23;;
8893;SDS011;4483;48.622;9.230;2022-12-10T01:53:51;26.90;;;16.47;;
8893;SDS011;4483;48.622;9.230;2022-12-10T01:56:19;26.53;;;16.30;;
8893;SDS011;4483;48.622;9.230;2022-12-10T01:58:46;29.30;;;17.93;;
8893;SDS011;4483;48.622;9.230;2022-12-10T02:01:15;26.63;;;17.43;;
8893;SDS011;4483;48.622;9.230;2022-12-10T02:03:57;32.50;;;18.43;;
8893;SDS011;4483;48.622;9.230;2022-12-10T02:06:43;27.23;;;17.13;;
8893;SDS011;4483;48.622;9.230;2022-12-10T02:09:18;24.93;;;16.43;;
8893;SDS011;4483;48.622;9.230;2022-12-10T02:11:52;24.23;;;17.30;;
8893;SDS011;4483;48.622;9.230;2022-12-10T02:14:27;24.33;;;16.83;;
8893;SDS011;4483;48.622;9.230;2022-12-10T02:17:01;26.97;;;16.97;;
8893;SDS011;4483;48.622;9.230;2022-12-10T02:19:36;24.80;;;17.00;;
8893;SDS011;4483;48.622;9.230;2022-12-10T02:22:15;26.03;;;17.63;;
8893;SDS011;4483;48.622;9.230;2022-12-10T02:24:44;22.50;;;15.43;;
8893;SDS011;4483;48.622;9.230;2022-12-10T02:27:15;26.17;;;17.57;;
8893;SDS011;4483;48.622;9.230;2022-12-10T02:29:49;27.27;;;16.73;;
8893;SDS011;4483;48.622;9.230;2022-12-10T02:32:19;26.87;;;16.80;;
8893;SDS011;4483;48.622;9.230;2022-12-10T02:34:50;24.37;;;16.03;;
8893;SDS011;4483;48.622;9.230;2022-12-10T02:37:21;24.23;;;16.40;;
8893;SDS011;4483;48.622;9.230;2022-12-10T02:39:50;23.73;;;16.67;;
8893;SDS011;4483;48.622;9.230;2022-12-10T02:42:20;24.10;;;16.47;;
8893;SDS011;4483;48.622;9.230;2022-12-10T02:44:52;23.73;;;16.20;;
8893;SDS011;4483;48.622;9.230;2022-12-10T02:47:21;24.73;;;16.67;;
8893;SDS011;4483;48.622;9.230;2022-12-10T02:49:50;26.03;;;16.57;;
8893;SDS011;4483;48.622;9.230;2022-12-10T02:52:19;24.53;;;16.70;;
8893;SDS011;4483;48.622;9.230;2022-12-10T02:54:47;20.07;;;14.37;;
8893;SDS011;4483;48.622;9.230;2022-12-10T02:57:18;24.57;;;16.30;;
8893;SDS011;4483;48.622;9.230;2022-12-10T03:00:11;23.37;;;15.97;;
8893;SDS011;4483;48.622;9.230;2022-12-10T03:02:46;22.97;;;16.77;;
8893;SDS011;4483;48.622;9.230;2022-12-10T03:05:35;22.33;;;16.07;;
8893;SDS011;4483;48.622;9.230;2022-12-10T03:08:12;24.80;;;16.07;;
8893;SDS011;4483;48.622;9.230;2022-12-10T03:10:43;24.07;;;16.47;;
8893;SDS011;4483;48.622;9.230;2022-12-10T03:13:15;24.70;;;16.77;;
8893;SDS011;4483;48.622;9.230;2022-12-10T03:15:45;22.30;;;15.67;;
8893;SDS011;4483;48.622;9.230;2022-12-10T03:18:14;22.70;;;16.63;;
8893;SDS011;4483;48.622;9.230;2022-12-10T03:20:45;24.70;;;15.00;;
8893;SDS011;4483;48.622;9.230;2022-12-10T03:23:14;23.97;;;16.60;;
8893;SDS011;4483;48.622;9.230;2022-12-10T03:25:44;23.20;;;15.73;;
8893;SDS011;4483;48.622;9.230;2022-12-10T03:28:14;24.40;;;16.40;;
8893;SDS011;4483;48.622;9.230;2022-12-10T03:30:45;25.33;;;16.30;;
8893;SDS011;4483;48.622;9.230;2022-12-10T03:33:14;24.30;;;15.40;;
8893;SDS011;4483;48.622;9.230;2022-12-10T03:35:41;22.20;;;15.27;;
8893;SDS011;4483;48.622;9.230;2022-12-10T03:38:08;26.07;;;16.33;;
8893;SDS011;4483;48.622;9.230;2022-12-10T03:40:36;26.50;;;16.17;;
8893;SDS011;4483;48.622;9.230;2022-12-10T03:43:03;24.40;;;16.17;;
8893;SDS011;4483;48.622;9.230;2022-12-10T03:45:29;23.27;;;16.40;;
8893;SDS011;4483;48.622;9.230;2022-12-10T03:47:57;26.43;;;16.30;;
8893;SDS011;4483;48.622;9.230;2022-12-10T03:50:24;24.90;;;15.90;;
8893;SDS011;4483;48.622;9.230;2022-12-10T03:52:50;22.93;;;15.50;;
8893;SDS011;4483;48.622;9.230;2022-12-10T03:55:17;22.87;;;15.23;;
8893;SDS011;4483;48.622;9.230;2022-12-10T03:57:44;22.87;;;15.73;;
8893;SDS011;4483;48.622;9.230;2022-12-10T04:00:11;22.80;;;15.90;;
8893;SDS011;4483;48.622;9.230;2022-12-10T04:02:38;24.17;;;16.63;;
8893;SDS011;4483;48.622;9.230;2022-12-10T04:05:06;21.67;;;14.60;;
8893;SDS011;4483;48.622;9.230;2022-12-10T04:07:34;21.17;;;15.17;;
8893;SDS011;4483;48.622;9.230;2022-12-10T04:10:01;21.30;;;14.77;;
8893;SDS011;4483;48.622;9.230;2022-12-10T04:12:27;23.77;;;15.97;;
8893;SDS011;4483;48.622;9.230;2022-12-10T04:14:54;26.23;;;16.70;;
8893;SDS011;4483;48.622;9.230;2022-12-10T04:17:38;20.60;;;14.93;;
8893;SDS011;4483;48.622;9.230;2022-12-10T04:20:07;23.50;;;16.10;;
8893;SDS011;4483;48.622;9.230;2022-12-10T04:22:54;22.00;;;15.07;;
8893;SDS011;4483;48.622;9.230;2022-12-10T04:25:38;24.13;;;15.93;;
8893;SDS011;4483;48.622;9.230;2022-12-10T04:28:22;26.83;;;15.47;;
8893;SDS011;4483;48.622;9.230;2022-12-10T04:30:49;21.23;;;14.70;;
8893;SDS011;4483;48.622;9.230;2022-12-10T04:33:15;22.80;;;15.50;;
8893;SDS011;4483;48.622;9.230;2022-12-10T04:35:43;24.03;;;16.13;;
8893;SDS011;4483;48.622;9.230;2022-12-10T04:38:10;20.40;;;14.73;;
8893;SDS011;4483;48.622;9.230;2022-12-10T04:40:37;22.63;;;15.83;;
8893;SDS011;4483;48.622;9.230;2022-12-10T04:43:03;23.20;;;15.40;;
8893;SDS011;4483;48.622;9.230;2022-12-10T04:45:30;26.30;;;15.50;;
8893;SDS011;4483;48.622;9.230;2022-12-10T04:47:59;20.37;;;15.20;;
8893;SDS011;4483;48.622;9.230;2022-12-10T04:50:26;22.50;;;14.87;;
8893;SDS011;4483;48.622;9.230;2022-12-10T04:52:54;19.97;;;14.57;;
8893;SDS011;4483;48.622;9.230;2022-12-10T04:55:20;23.57;;;14.70;;
8893;SDS011;4483;48.622;9.230;2022-12-10T04:57:47;19.03;;;14.87;;
8893;SDS011;4483;48.622;9.230;2022-12-10T05:00:14;19.67;;;14.83;;
8893;SDS011;4483;48.622;9.230;2022-12-10T05:02:41;27.90;;;16.53;;
8893;SDS011;4483;48.622;9.230;2022-12-10T05:05:07;23.10;;;15.30;;
8893;SDS011;4483;48.622;9.230;2022-12-10T05:07:34;22.70;;;15.67;;
8893;SDS011;4483;48.622;9.230;2022-12-10T05:10:02;23.90;;;16.37;;
8893;SDS011;4483;48.622;9.230;2022-12-10T05:12:29;21.50;;;14.97;;
8893;SDS011;4483;48.622;9.230;2022-12-10T05:14:57;23.13;;;15.23;;
8893;SDS011;4483;48.622;9.230;2022-12-10T05:17:23;21.77;;;15.03;;
8893;SDS011;4483;48.622;9.230;2022-12-10T05:19:50;21.10;;;15.67;;
8893;SDS011;4483;48.622;9.230;2022-12-10T05:22:17;23.47;;;15.37;;
8893;SDS011;4483;48.622;9.230;2022-12-10T05:25:13;20.40;;;14.70;;
8893;SDS011;4483;48.622;9.230;2022-12-10T05:27:40;19.70;;;14.20;;
8893;SDS011;4483;48.622;9.230;2022-12-10T05:30:07;23.23;;;14.77;;
8893;SDS011;4483;48.622;9.230;2022-12-10T05:32:35;21.70;;;14.77;;
8893;SDS011;4483;48.622;9.230;2022-12-10T05:35:02;22.50;;;16.13;;
8893;SDS011;4483;48.622;9.230;2022-12-10T05:37:29;20.07;;;15.23;;
8893;SDS011;4483;48.622;9.230;2022-12-10T05:39:56;20.57;;;14.40;;
8893;SDS011;4483;48.622;9.230;2022-12-10T05:42:24;19.00;;;14.07;;
8893;SDS011;4483;48.622;9.230;2022-12-10T05:44:51;18.87;;;14.70;;
8893;SDS011;4483;48.622;9.230;2022-12-10T05:47:17;20.00;;;13.70;;
8893;SDS011;4483;48.622;9.230;2022-12-10T05:49:44;20.63;;;13.40;;
8893;SDS011;4483;48.622;9.230;2022-12-10T05:52:12;24.50;;;15.40;;
8893;SDS011;4483;48.622;9.230;2022-12-10T05:54:38;21.47;;;15.30;;
8893;SDS011;4483;48.622;9.230;2022-12-10T05:57:05;22.80;;;15.43;;
8893;SDS011;4483;48.622;9.230;2022-12-10T05:59:33;20.73;;;14.93;;
8893;SDS011;4483;48.622;9.230;2022-12-10T06:02:00;21.87;;;15.17;;
8893;SDS011;4483;48.622;9.230;2022-12-10T06:04:26;18.23;;;14.33;;
8893;SDS011;4483;48.622;9.230;2022-12-10T06:06:53;21.03;;;14.97;;
8893;SDS011;4483;48.622;9.230;2022-12-10T06:09:19;22.53;;;15.07;;
8893;SDS011;4483;48.622;9.230;2022-12-10T06:11:46;20.03;;;14.17;;
8893;SDS011;4483;48.622;9.230;2022-12-10T06:14:13;22.43;;;15.37;;
8893;SDS011;4483;48.622;9.230;2022-12-10T06:16:41;20.07;;;14.67;;
8893;SDS011;4483;48.622;9.230;2022-12-10T06:19:07;21.90;;;15.17;;
8893;SDS011;4483;48.622;9.230;2022-12-10T06:21:34;19.37;;;14.20;;
8893;SDS011;4483;48.622;9.230;2022-12-10T06:24:01;21.30;;;14.07;;
8893;SDS011;4483;48.622;9.230;2022-12-10T06:26:27;17.47;;;13.63;;
8893;SDS011;4483;48.622;9.230;2022-12-10T06:28:54;20.87;;;14.07;;
8893;SDS011;4483;48.622;9.230;2022-12-10T06:31:21;20.23;;;13.20;;
8893;SDS011;4483;48.622;9.230;2022-12-10T06:33:50;17.77;;;13.97;;
8893;SDS011;4483;48.622;9.230;2022-12-10T06:36:17;18.27;;;12.17;;
8893;SDS011;4483;48.622;9.230;2022-12-10T06:38:44;17.37;;;13.27;;
8893;SDS011;4483;48.622;9.230;2022-12-10T06:41:12;18.40;;;13.07;;
8893;SDS011;4483;48.622;9.230;2022-12-10T06:43:40;16.27;;;12.67;;
8893;SDS011;4483;48.622;9.230;2022-12-10T06:46:07;15.60;;;12.60;;
8893;SDS011;4483;48.622;9.230;2022-12-10T06:48:35;19.40;;;14.03;;
8893;SDS011;4483;48.622;9.230;2022-12-10T06:51:04;19.17;;;14.07;;
8893;SDS011;4483;48.622;9.230;2022-12-10T06:53:32;17.73;;;12.83;;
8893;SDS011;4483;48.622;9.230;2022-12-10T06:56:00;20.03;;;13.70;;
8893;SDS011;4483;48.622;9.230;2022-12-10T06:58:28;20.30;;;13.90;;
8893;SDS011;4483;48.622;9.230;2022-12-10T07:01:01;18.40;;;12.83;;
8893;SDS011;4483;48.622;9.230;2022-12-10T07:03:29;19.63;;;13.50;;
8893;SDS011;4483;48.622;9.230;2022-12-10T07:05:56;20.77;;;14.03;;
8893;SDS011;4483;48.622;9.230;2022-12-10T07:08:24;19.87;;;13.33;;
8893;SDS011;4483;48.622;9.230;2022-12-10T07:10:51;17.83;;;12.77;;
8893;SDS011;4483;48.622;9.230;2022-12-10T07:13:18;21.53;;;13.73;;
8893;SDS011;4483;48.622;9.230;2022-12-10T07:15:45;17.23;;;13.33;;
8893;SDS011;4483;48.622;9.230;2022-12-10T07:18:12;20.57;;;14.80;;
8893;SDS011;4483;48.622;9.230;2022-12-10T07:20:38;17.77;;;12.73;;
8893;SDS011;4483;48.622;9.230;2022-12-10T07:23:05;19.70;;;12.87;;
8893;SDS011;4483;48.622;9.230;2022-12-10T07:25:33;19.50;;;13.37;;
8893;SDS011;4483;48.622;9.230;2022-12-10T07:28:00;20.43;;;14.37;;
8893;SDS011;4483;48.622;9.230;2022-12-10T07:30:26;18.43;;;14.03;;
8893;SDS011;4483;48.622;9.230;2022-12-10T07:32:53;19.57;;;14.07;;
8893;SDS011;4483;48.622;9.230;2022-12-10T07:35:20;18.87;;;12.83;;
8893;SDS011;4483;48.622;9.230;2022-12-10T07:37:46;19.70;;;13.57;;
8893;SDS011;4483;48.622;9.230;2022-12-10T07:40:13;18.77;;;13.23;;
8893;SDS011;4483;48.622;9.230;2022-12-10T07:42:41;19.57;;;14.10;;
8893;SDS011;4483;48.622;9.230;2022-12-10T07:45:08;18.33;;;13.53;;
8893;SDS011;4483;48.622;9.230;2022-12-10T07:47:35;19.97;;;13.83;;
8893;SDS011;4483;48.622;9.230;2022-12-10T07:50:03;18.53;;;13.27;;
8893;SDS011;4483;48.622;9.230;2022-12-10T07:52:30;18.47;;;13.33;;
8893;SDS011;4483;48.622;9.230;2022-12-10T07:54:57;20.80;;;14.20;;
8893;SDS011;4483;48.622;9.230;2022-12-10T07:57:23;18.57;;;14.03;;
8893;SDS011;4483;48.622;9.230;2022-12-10T07:59:51;19.50;;;13.23;;
8893;SDS011;4483;48.622;9.230;2022-12-10T08:02:18;18.60;;;13.70;;
8893;SDS011;4483;48.622;9.230;2022-12-10T08:04:44;17.27;;;13.23;;
8893;SDS011;4483;48.622;9.230;2022-12-10T08:07:11;18.03;;;14.23;;
8893;SDS011;4483;48.622;9.230;2022-12-10T08:09:38;20.10;;;15.68;;
8893;SDS011;4483;48.622;9.230;2022-12-10T08:12:04;19.70;;;14.47;;
8893;SDS011;4483;48.622;9.230;2022-12-10T08:14:31;19.07;;;14.27;;
8893;SDS011;4483;48.622;9.230;2022-12-10T08:16:59;20.67;;;14.83;;
8893;SDS011;4483;48.622;9.230;2022-12-10T08:19:26;20.47;;;15.23;;
8893;SDS011;4483;48.622;9.230;2022-12-10T08:21:53;19.90;;;14.23;;
8893;SDS011;4483;48.622;9.230;2022-12-10T08:24:19;19.53;;;14.00;;
8893;SDS011;4483;48.622;9.230;2022-12-10T08:26:46;18.77;;;14.10;;
8893;SDS011;4483;48.622;9.230;2022-12-10T08:29:12;21.17;;;14.73;;
8893;SDS011;4483;48.622;9.230;2022-12-10T08:31:39;20.03;;;14.07;;
8893;SDS011;4483;48.622;9.230;2022-12-10T08:34:12;17.70;;;13.87;;
8893;SDS011;4483;48.622;9.230;2022-12-10T08:36:40;19.63;;;14.03;;
8893;SDS011;4483;48.622;9.230;2022-12-10T08:39:06;19.93;;;14.83;;
8893;SDS011;4483;48.622;9.230;2022-12-10T08:41:35;17.93;;;13.93;;
8893;SDS011;4483;48.622;9.230;2022-12-10T08:44:02;20.33;;;13.83;;
8893;SDS011;4483;48.622;9.230;2022-12-10T08:46:29;18.80;;;13.23;;
8893;SDS011;4483;48.622;9.230;2022-12-10T08:48:56;21.10;;;14.43;;
8893;SDS011;4483;48.622;9.230;2022-12-10T08:51:24;18.73;;;13.90;;
8893;SDS011;4483;48.622;9.230;2022-12-10T08:53:51;18.73;;;13.43;;
8893;SDS011;4483;48.622;9.230;2022-12-10T08:56:18;20.57;;;13.93;;
8893;SDS011;4483;48.622;9.230;2022-12-10T08:58:44;19.07;;;13.53;;
8893;SDS011;4483;48.622;9.230;2022-12-10T09:01:11;21.60;;;14.03;;
8893;SDS011;4483;48.622;9.230;2022-12-10T09:03:39;17.37;;;13.13;;
8893;SDS011;4483;48.622;9.230;2022-12-10T09:06:07;17.43;;;13.07;;
8893;SDS011;4483;48.622;9.230;2022-12-10T09:08:36;17.90;;;13.47;;
8893;SDS011;4483;48.622;9.230;2022-12-10T09:11:06;19.53;;;14.00;;
8893;SDS011;4483;48.622;9.230;2022-12-10T09:13:34;17.87;;;13.53;;
8893;SDS011;4483;48.622;9.230;2022-12-10T09:16:01;22.23;;;14.70;;
8893;SDS011;4483;48.622;9.230;2022-12-10T09:18:28;17.63;;;13.37;;
8893;SDS011;4483;48.622;9.230;2022-12-10T09:20:55;17.83;;;13.10;;
8893;SDS011;4483;48.622;9.230;2022-12-10T09:23:22;16.47;;;13.23;;
8893;SDS011;4483;48.622;9.230;2022-12-10T09:25:50;17.03;;;12.87;;
8893;SDS011;4483;48.622;9.230;2022-12-10T09:28:17;17.97;;;13.60;;
8893;SDS011;4483;48.622;9.230;2022-12-10T09:30:43;20.50;;;13.50;;
8893;SDS011;4483;48.622;9.230;2022-12-10T09:33:10;21.13;;;14.00;;
8893;SDS011;4483;48.622;9.230;2022-12-10T09:35:39;18.53;;;13.87;;
8893;SDS011;4483;48.622;9.230;2022-12-10T09:38:06;19.77;;;14.37;;
8893;SDS011;4483;48.622;9.230;2022-12-10T09:40:35;19.07;;;13.70;;
8893;SDS011;4483;48.622;9.230;2022-12-10T09:43:10;17.77;;;13.90;;
8893;SDS011;4483;48.622;9.230;2022-12-10T09:45:47;17.20;;;13.83;;
8893;SDS011;4483;48.622;9.230;2022-12-10T09:48:25;20.93;;;15.10;;
8893;SDS011;4483;48.622;9.230;2022-12-10T09:51:00;18.23;;;13.83;;
8893;SDS011;4483;48.622;9.230;2022-12-10T09:53:30;17.80;;;13.70;;
8893;SDS011;4483;48.622;9.230;2022-12-10T09:55:58;18.27;;;14.13;;
8893;SDS011;4483;48.622;9.230;2022-12-10T09:58:26;18.33;;;13.37;;
8893;SDS011;4483;48.622;9.230;2022-12-10T10:00:54;19.43;;;14.33;;
8893;SDS011;4483;48.622;9.230;2022-12-10T10:03:24;18.17;;;12.97;;
8893;SDS011;4483;48.622;9.230;2022-12-10T10:05:51;18.67;;;13.20;;
8893;SDS011;4483;48.622;9.230;2022-12-10T10:08:22;17.50;;;13.00;;
8893;SDS011;4483;48.622;9.230;2022-12-10T10:10:54;16.43;;;12.80;;
8893;SDS011;4483;48.622;9.230;2022-12-10T10:13:23;20.53;;;14.57;;
8893;SDS011;4483;48.622;9.230;2022-12-10T10:15:58;19.20;;;14.07;;
8893;SDS011;4483;48.622;9.230;2022-12-10T10:18:39;19.33;;;13.30;;
8893;SDS011;4483;48.622;9.230;2022-12-10T10:21:23;20.60;;;14.43;;
8893;SDS011;4483;48.622;9.230;2022-12-10T10:23:54;19.33;;;13.47;;
8893;SDS011;4483;48.622;9.230;2022-12-10T10:26:23;17.77;;;13.27;;
8893;SDS011;4483;48.622;9.230;2022-12-10T10:28:53;19.43;;;13.93;;
8893;SDS011;4483;48.622;9.230;2022-12-10T10:31:24;16.90;;;13.27;;
8893;SDS011;4483;48.622;9.230;2022-12-10T10:33:53;19.53;;;14.10;;
8893;SDS011;4483;48.622;9.230;2022-12-10T10:36:23;17.30;;;13.60;;
8893;SDS011;4483;48.622;9.230;2022-12-10T10:38:51;17.80;;;13.13;;
8893;SDS011;4483;48.622;9.230;2022-12-10T10:41:18;18.20;;;13.73;;
8893;SDS011;4483;48.622;9.230;2022-12-10T10:43:44;18.37;;;13.93;;
8893;SDS011;4483;48.622;9.230;2022-12-10T10:46:14;19.60;;;13.80;;
8893;SDS011;4483;48.622;9.230;2022-12-10T10:48:42;15.50;;;13.23;;
8893;SDS011;4483;48.622;9.230;2022-12-10T10:51:15;19.50;;;13.50;;
8893;SDS011;4483;48.622;9.230;2022-12-10T10:53:46;20.93;;;14.87;;
8893;SDS011;4483;48.622;9.230;2022-12-10T10:56:15;18.90;;;14.23;;
8893;SDS011;4483;48.622;9.230;2022-12-10T10:58:47;17.80;;;13.30;;
8893;SDS011;4483;48.622;9.230;2022-12-10T11:01:20;17.10;;;13.37;;
8893;SDS011;4483;48.622;9.230;2022-12-10T11:03:50;18.13;;;13.27;;
8893;SDS011;4483;48.622;9.230;2022-12-10T11:06:21;18.97;;;12.97;;
8893;SDS011;4483;48.622;9.230;2022-12-10T11:08:48;18.60;;;13.47;;
8893;SDS011;4483;48.622;9.230;2022-12-10T11:11:22;14.90;;;12.97;;
8893;SDS011;4483;48.622;9.230;2022-12-10T11:14:05;16.83;;;13.00;;
8893;SDS011;4483;48.622;9.230;2022-12-10T11:16:41;16.87;;;13.40;;
8893;SDS011;4483;48.622;9.230;2022-12-10T11:19:16;17.80;;;13.37;;
8893;SDS011;4483;48.622;9.230;2022-12-10T11:21:46;16.70;;;12.90;;
8893;SDS011;4483;48.622;9.230;2022-12-10T11:24:15;17.23;;;13.27;;
8893;SDS011;4483;48.622;9.230;2022-12-10T11:26:50;17.63;;;12.33;;
8893;SDS011;4483;48.622;9.230;2022-12-10T11:29:36;16.57;;;12.10;;
8893;SDS011;4483;48.622;9.230;2022-12-10T11:32:23;15.37;;;12.63;;
8893;SDS011;4483;48.622;9.230;2022-12-10T11:35:02;17.00;;;13.33;;
8893;SDS011;4483;48.622;9.230;2022-12-10T11:37:38;16.97;;;13.07;;
8893;SDS011;4483;48.622;9.230;2022-12-10T11:40:15;16.87;;;12.60;;
8893;SDS011;4483;48.622;9.230;2022-12-10T11:43:05;16.33;;;12.33;;
8893;SDS011;4483;48.622;9.230;2022-12-10T11:45:52;19.87;;;13.40;;
8893;SDS011;4483;48.622;9.230;2022-12-10T11:48:34;15.77;;;12.67;;
8893;SDS011;4483;48.622;9.230;2022-12-10T11:51:15;16.57;;;12.83;;
8893;SDS011;4483;48.622;9.230;2022-12-10T11:53:50;17.73;;;13.43;;
8893;SDS011;4483;48.622;9.230;2022-12-10T11:56:26;17.20;;;13.23;;
8893;SDS011;4483;48.622;9.230;2022-12-10T11:58:58;17.73;;;13.70;;
8893;SDS011;4483;48.622;9.230;2022-12-10T12:01:37;17.57;;;13.07;;
8893;SDS011;4483;48.622;9.230;2022-12-10T12:04:20;17.57;;;13.43;;
8893;SDS011;4483;48.622;9.230;2022-12-10T12:07:06;18.63;;;13.53;;
8893;SDS011;4483;48.622;9.230;2022-12-10T12:09:47;16.37;;;12.90;;
8893;SDS011;4483;48.622;9.230;2022-12-10T12:12:24;19.73;;;13.20;;
8893;SDS011;4483;48.622;9.230;2022-12-10T12:14:58;18.00;;;12.60;;
8893;SDS011;4483;48.622;9.230;2022-12-10T12:17:30;14.20;;;12.37;;
8893;SDS011;4483;48.622;9.230;2022-12-10T12:20:03;16.07;;;12.70;;
8893;SDS011;4483;48.622;9.230;2022-12-10T12:22:39;15.53;;;11.97;;
8893;SDS011;4483;48.622;9.230;2022-12-10T12:25:15;15.47;;;12.23;;
8893;SDS011;4483;48.622;9.230;2022-12-10T12:27:47;15.83;;;12.80;;
8893;SDS011;4483;48.622;9.230;2022-12-10T12:30:18;16.90;;;12.47;;
8893;SDS011;4483;48.622;9.230;2022-12-10T12:32:49;14.37;;;11.47;;
8893;SDS011;4483;48.622;9.230;2022-12-10T12:35:22;18.93;;;12.33;;
8893;SDS011;4483;48.622;9.230;2022-12-10T12:37:57;14.47;;;11.57;;
8893;SDS011;4483;48.622;9.230;2022-12-10T12:40:28;15.83;;;11.77;;
8893;SDS011;4483;48.622;9.230;2022-12-10T12:42:57;14.60;;;11.30;;
8893;SDS011;4483;48.622;9.230;2022-12-10T12:45:30;13.43;;;10.57;;
8893;SDS011;4483;48.622;9.230;2022-12-10T12:48:01;13.03;;;9.87;;
8893;SDS011;4483;48.622;9.230;2022-12-10T12:50:48;13.53;;;10.27;;
8893;SDS011;4483;48.622;9.230;2022-12-10T12:53:19;14.73;;;9.80;;
8893;SDS011;4483;48.622;9.230;2022-12-10T12:55:50;14.70;;;10.00;;
8893;SDS011;4483;48.622;9.230;2022-12-10T12:58:25;13.07;;;10.30;;
8893;SDS011;4483;48.622;9.230;2022-12-10T13:01:03;14.13;;;10.30;;
8893;SDS011;4483;48.622;9.230;2022-12-10T13:03:38;13.27;;;10.43;;
8893;SDS011;4483;48.622;9.230;2022-12-10T13:06:15;14.93;;;11.07;;
8893;SDS011;4483;48.622;9.230;2022-12-10T13:08:48;11.97;;;10.13;;
8893;SDS011;4483;48.622;9.230;2022-12-10T13:11:18;13.17;;;11.00;;
8893;SDS011;4483;48.622;9.230;2022-12-10T13:14:13;13.87;;;10.90;;
8893;SDS011;4483;48.622;9.230;2022-12-10T13:16:55;11.43;;;9.90;;
8893;SDS011;4483;48.622;9.230;2022-12-10T13:19:28;12.20;;;9.57;;
8893;SDS011;4483;48.622;9.230;2022-12-10T13:21:59;13.17;;;10.47;;
8893;SDS011;4483;48.622;9.230;2022-12-10T13:24:44;13.17;;;10.73;;
8893;SDS011;4483;48.622;9.230;2022-12-10T13:27:28;14.80;;;10.80;;
8893;SDS011;4483;48.622;9.230;2022-12-10T13:29:59;14.47;;;11.03;;
8893;SDS011;4483;48.622;9.230;2022-12-10T13:32:42;13.03;;;10.40;;
8893;SDS011;4483;48.622;9.230;2022-12-10T13:35:23;12.63;;;10.37;;
8893;SDS011;4483;48.622;9.230;2022-12-10T13:37:56;16.17;;;9.90;;
8893;SDS011;4483;48.622;9.230;2022-12-10T13:40:36;14.63;;;10.63;;
8893;SDS011;4483;48.622;9.230;2022-12-10T13:43:25;12.10;;;10.27;;
8893;SDS011;4483;48.622;9.230;2022-12-10T13:46:19;13.67;;;10.17;;
8893;SDS011;4483;48.622;9.230;2022-12-10T13:48:48;10.93;;;9.57;;
8893;SDS011;4483;48.622;9.230;2022-12-10T13:51:29;12.90;;;10.17;;
8893;SDS011;4483;48.622;9.230;2022-12-10T13:54:23;14.00;;;10.30;;
8893;SDS011;4483;48.622;9.230;2022-12-10T13:57:15;13.30;;;10.20;;
8893;SDS011;4483;48.622;9.230;2022-12-10T13:59:52;15.30;;;9.97;;
8893;SDS011;4483;48.622;9.230;2022-12-10T14:02:47;15.33;;;10.50;;
8893;SDS011;4483;48.622;9.230;2022-12-10T14:05:27;12.23;;;9.57;;
8893;SDS011;4483;48.622;9.230;2022-12-10T14:08:16;13.40;;;10.07;;
8893;SDS011;4483;48.622;9.230;2022-12-10T14:10:46;11.97;;;9.97;;
8893;SDS011;4483;48.622;9.230;2022-12-10T14:13:15;16.60;;;11.03;;
8893;SDS011;4483;48.622;9.230;2022-12-10T14:15:46;13.27;;;10.87;;
8893;SDS011;4483;48.622;9.230;2022-12-10T14:18:19;13.40;;;10.63;;
8893;SDS011;4483;48.622;9.230;2022-12-10T14:20:47;12.10;;;9.87;;
8893;SDS011;4483;48.622;9.230;2022-12-10T14:23:23;14.67;;;10.83;;
8893;SDS011;4483;48.622;9.230;2022-12-10T14:26:08;14.00;;;10.07;;
8893;SDS011;4483;48.622;9.230;2022-12-10T14:28:40;13.63;;;10.77;;
8893;SDS011;4483;48.622;9.230;2022-12-10T14:31:11;14.10;;;11.07;;
8893;SDS011;4483;48.622;9.230;2022-12-10T14:33:41;16.60;;;13.00;;
8893;SDS011;4483;48.622;9.230;2022-12-10T14:36:14;15.80;;;11.53;;
8893;SDS011;4483;48.622;9.230;2022-12-10T14:38:44;12.80;;;10.90;;
8893;SDS011;4483;48.622;9.230;2022-12-10T14:41:14;17.43;;;12.63;;
8893;SDS011;4483;48.622;9.230;2022-12-10T14:43:44;15.60;;;11.60;;
8893;SDS011;4483;48.622;9.230;2022-12-10T14:46:13;14.03;;;11.07;;
8893;SDS011;4483;48.622;9.230;2022-12-10T14:48:42;14.93;;;11.60;;
8893;SDS011;4483;48.622;9.230;2022-12-10T14:51:11;13.63;;;12.17;;
8893;SDS011;4483;48.622;9.230;2022-12-10T14:53:40;15.37;;;11.47;;
8893;SDS011;4483;48.622;9.230;2022-12-10T14:56:07;14.47;;;11.33;;
8893;SDS011;4483;48.622;9.230;2022-12-10T14:58:41;15.13;;;11.40;;
8893;SDS011;4483;48.622;9.230;2022-12-10T15:01:12;14.10;;;11.30;;
8893;SDS011;4483;48.622;9.230;2022-12-10T15:03:46;14.20;;;11.70;;
8893;SDS011;4483;48.622;9.230;2022-12-10T15:06:15;13.50;;;10.87;;
8893;SDS011;4483;48.622;9.230;2022-12-10T15:08:44;14.73;;;11.40;;
8893;SDS011;4483;48.622;9.230;2022-12-10T15:11:14;14.07;;;11.47;;